Time;durP1;ratioP1;P1;durP2;ratioP2;P2;SDS_P1;SDS_P2;PMS_P1;PMS_P2;Temp;Humidity;BMP_temperature;BMP_pressure;BME280_temperature;BME280_humidity;BME280_pressure;Samples;Min_cycle;Max_cycle;Signal;HPM_P1;HPM_P2
2022/10/11 00:01:29;;;;;;;5.53;3.33;;;;;;;1.96;100.00;100193.16;1632582;88;21038;-72
2022/10/11 00:03:55;;;;;;;4.87;3.27;;;;;;;1.94;100.00;100188.02;1632645;88;21006;-72
2022/10/11 00:06:22;;;;;;;4.03;3.60;;;;;;;1.92;100.00;100193.56;1632307;88;20986;-72
2022/10/11 00:08:48;;;;;;;5.78;3.58;;;;;;;1.90;100.00;100197.82;1632433;88;21146;-72
2022/10/11 00:11:16;;;;;;;5.17;2.87;;;;;;;1.87;100.00;100196.94;1629187;87;20986;-72
2022/10/11 00:13:44;;;;;;;5.35;3.20;;;;;;;1.85;100.00;100196.93;1622281;88;20995;-72
2022/10/11 00:16:11;;;;;;;6.42;3.05;;;;;;;1.84;100.00;100195.63;1622279;88;21047;-72
2022/10/11 00:18:37;;;;;;;4.90;3.02;;;;;;;1.78;100.00;100197.77;1622157;88;21137;-72
2022/10/11 00:21:08;;;;;;;6.22;3.33;;;;;;;1.74;100.00;100196.02;1619421;87;21227;-72
2022/10/11 00:23:34;;;;;;;5.30;2.83;;;;;;;1.69;100.00;100198.56;1624377;87;20967;-72
2022/10/11 00:26:03;;;;;;;4.83;2.70;;;;;;;1.64;100.00;100202.79;1621919;87;21039;-72
2022/10/11 00:28:31;;;;;;;2.90;2.45;;;;;;;1.61;100.00;100203.19;1622275;88;21582;-72
2022/10/11 00:30:58;;;;;;;4.95;2.40;;;;;;;1.58;100.00;100202.78;1622258;88;21578;-72
2022/10/11 00:33:26;;;;;;;6.03;2.52;;;;;;;1.56;100.00;100199.77;1622172;88;21273;-72
2022/10/11 00:35:53;;;;;;;4.47;2.70;;;;;;;1.52;100.00;100201.45;1622216;88;20995;-72
2022/10/11 00:38:20;;;;;;;3.80;2.42;;;;;;;1.50;100.00;100198.01;1622268;88;21082;-72
2022/10/11 00:40:46;;;;;;;6.30;2.90;;;;;;;1.47;100.00;100196.70;1622277;88;21003;-72
2022/10/11 00:43:19;;;;;;;2.87;2.33;;;;;;;1.44;100.00;100197.09;1619533;87;20986;-72
2022/10/11 00:45:58;;;;;;;;;;;;;;;1.43;100.00;100194.95;1626310;87;21146;-72
2022/10/11 00:48:39;;;;;;;5.30;3.22;;;;;;;1.44;100.00;100199.66;1622226;88;20440;-72
2022/10/11 00:51:19;;;;;;;4.08;3.02;;;;;;;1.43;100.00;100188.97;1621969;88;21003;-72
2022/10/11 00:53:46;;;;;;;4.67;3.15;;;;;;;1.43;100.00;100187.27;1622297;88;21027;-72
2022/10/11 00:56:21;;;;;;;4.10;2.47;;;;;;;1.43;100.00;100192.40;1622230;88;21515;-72
2022/10/11 00:58:48;;;;;;;3.70;2.42;;;;;;;1.40;100.00;100191.09;1620400;88;21143;-72
2022/10/11 01:01:14;;;;;;;4.17;2.67;;;;;;;1.41;100.00;100192.80;1622198;88;20979;-72
2022/10/11 01:03:41;;;;;;;5.53;3.00;;;;;;;1.43;100.00;100192.82;1602773;88;21083;-72
2022/10/11 01:06:08;;;;;;;4.75;3.05;;;;;;;1.43;100.00;100185.13;1624764;88;21077;-72
2022/10/11 01:08:37;;;;;;;4.92;2.90;;;;;;;1.44;100.00;100188.98;1624673;88;21040;-72
2022/10/11 01:11:04;;;;;;;4.00;2.37;;;;;;;1.44;100.00;100189.41;1659443;86;21194;-72
2022/10/11 01:14:01;;;;;;;3.67;2.50;;;;;;;1.44;100.00;100181.72;1639080;86;21098;-72
2022/10/11 01:16:37;;;;;;;4.92;2.50;;;;;;;1.43;100.00;100190.26;1639024;87;21085;-72
2022/10/11 01:19:40;;;;;;;3.52;2.60;;;;;;;1.40;100.00;100187.70;1637602;86;20991;-72
2022/10/11 01:22:37;;;;;;;3.85;2.87;;;;;;;1.38;100.00;100188.55;1646205;86;21173;-72
2022/10/11 01:25:18;;;;;;;4.50;3.10;;;;;;;1.37;100.00;100184.27;1646111;86;21275;-72
2022/10/11 01:27:58;;;;;;;4.58;2.58;;;;;;;1.34;100.00;100182.95;1641145;87;20959;-72
2022/10/11 01:30:27;;;;;;;2.60;2.10;;;;;;;1.30;100.00;100187.62;1630134;86;20983;-72
2022/10/11 01:33:28;;;;;;;4.60;2.50;;;;;;;1.28;100.00;100190.59;1639552;87;21034;-72
2022/10/11 01:36:03;;;;;;;4.33;3.08;;;;;;;1.27;100.00;100189.30;1635180;86;21015;-72
2022/10/11 01:38:51;;;;;;;3.62;2.30;;;;;;;1.22;100.00;100192.23;1639194;87;22075;-73
2022/10/11 01:41:26;;;;;;;4.90;2.55;;;;;;;1.19;100.00;100191.82;1644133;87;21086;-72
2022/10/11 01:43:57;;;;;;;5.15;2.20;;;;;;;1.14;100.00;100194.76;1602957;88;21526;-72
2022/10/11 01:46:24;;;;;;;5.33;2.45;;;;;;;1.10;100.00;100193.44;1595576;90;21675;-72
2022/10/11 01:48:53;;;;;;;4.50;2.30;;;;;;;1.06;100.00;100186.14;1639260;87;21423;-72
2022/10/11 01:51:23;;;;;;;2.90;1.90;;;;;;;1.03;100.00;100179.70;1644169;87;21138;-72
2022/10/11 01:54:08;;;;;;;5.62;2.42;;;;;;;1.00;100.00;100179.25;1639143;86;21030;-72
2022/10/11 01:56:49;;;;;;;4.37;3.37;;;;;;;1.01;100.00;100186.52;1639043;86;20982;-73
2022/10/11 02:00:02;;;;;;;5.50;3.30;;;;;;;0.99;100.00;100184.39;1639695;87;20987;-72
2022/10/11 02:03:06;;;;;;;4.50;3.35;;;;;;;0.99;100.00;100185.67;1638792;87;21066;-72
2022/10/11 02:05:42;;;;;;;5.37;2.90;;;;;;;0.96;100.00;100185.22;1602898;88;21183;-72
2022/10/11 02:08:35;;;;;;;5.10;3.50;;;;;;;0.94;100.00;100184.77;1595573;90;21022;-72
2022/10/11 02:11:14;;;;;;;5.75;2.72;;;;;;;0.95;100.00;100185.20;1633276;87;21011;-73
2022/10/11 02:14:09;;;;;;;5.65;2.62;;;;;;;0.93;100.00;100182.63;1643739;87;21067;-72
2022/10/11 02:16:52;;;;;;;3.10;2.12;;;;;;;0.90;100.00;100180.03;1644559;87;20955;-74
2022/10/11 02:19:19;;;;;;;;;;;;;;;0.89;100.00;100179.60;1600714;89;21173;-74
2022/10/11 02:21:49;;;;;;;6.70;2.90;;;;;;;0.87;100.00;100184.27;1595494;90;20144;-74
2022/10/11 02:24:26;;;;;;;4.10;2.47;;;;;;;0.83;100.00;100178.25;1643855;87;20995;-74
2022/10/11 02:26:53;;;;;;;5.42;2.70;;;;;;;0.84;100.00;100179.11;1609302;89;21008;-72
2022/10/11 02:29:22;;;;;;;5.42;2.85;;;;;;;0.81;100.00;100177.80;1594004;90;21031;-73
2022/10/11 02:31:49;;;;;;;3.60;2.70;;;;;;;0.79;100.00;100175.68;1594071;90;21203;-71
2022/10/11 02:34:21;;;;;;;7.42;3.12;;;;;;;0.75;100.00;100182.47;1586737;90;21528;-71
2022/10/11 02:37:02;;;;;;;4.55;2.37;;;;;;;0.74;100.00;100179.89;1594230;90;21090;-72
2022/10/11 02:39:43;;;;;;;4.95;3.15;;;;;;;0.72;100.00;100178.59;1594044;90;21063;-73
2022/10/11 02:42:14;;;;;;;4.62;2.37;;;;;;;0.69;100.00;100181.12;1579472;90;21034;-72
2022/10/11 02:44:45;;;;;;;5.40;2.42;;;;;;;0.67;100.00;100173.84;1639012;87;21246;-72
2022/10/11 02:47:12;;;;;;;3.92;2.70;;;;;;;0.65;100.00;100176.81;1621832;87;21034;-72
2022/10/11 02:49:38;;;;;;;12.68;3.47;;;;;;;0.61;100.00;100174.63;1635272;86;21076;-72
2022/10/11 02:52:05;;;;;;;7.00;3.35;;;;;;;0.60;100.00;100175.93;1629168;87;20995;-72
2022/10/11 02:54:33;;;;;;;3.83;2.75;;;;;;;0.59;100.00;100174.21;1612201;88;21039;-72
2022/10/11 02:57:00;;;;;;;4.17;3.10;;;;;;;0.59;100.00;100179.33;1599572;89;21165;-72
2022/10/11 02:59:26;;;;;;;3.02;2.50;;;;;;;0.54;100.00;100174.16;1599049;89;21137;-72
2022/10/11 03:01:53;;;;;;;4.53;2.40;;;;;;;0.52;100.00;100174.56;1598193;89;21044;-72
2022/10/11 03:04:19;;;;;;;4.05;2.70;;;;;;;0.50;100.00;100171.55;1596710;89;21091;-72
2022/10/11 03:06:46;;;;;;;4.05;2.62;;;;;;;0.50;100.00;100176.66;1598214;89;21047;-72
2022/10/11 03:09:12;;;;;;;3.35;2.92;;;;;;;0.47;100.00;100168.53;1598160;89;21214;-72
2022/10/11 03:11:39;;;;;;;5.15;3.05;;;;;;;0.45;100.00;100171.48;1598821;89;21046;-71
2022/10/11 03:14:06;;;;;;;4.65;2.90;;;;;;;0.44;100.00;100172.33;1609635;89;21038;-72
2022/10/11 03:16:34;;;;;;;4.15;2.33;;;;;;;0.42;100.00;100173.15;1609706;89;20999;-72
2022/10/11 03:19:00;;;;;;;2.90;2.27;;;;;;;0.41;100.00;100179.97;1608124;89;21110;-72
2022/10/11 03:21:27;;;;;;;4.45;2.80;;;;;;;0.42;100.00;100179.13;1609595;89;21320;-72
2022/10/11 03:23:53;;;;;;;3.42;2.80;;;;;;;0.40;100.00;100174.41;1609629;89;20986;-72
2022/10/11 03:26:20;;;;;;;4.83;3.05;;;;;;;0.40;100.00;100174.41;1609554;89;21022;-72
2022/10/11 03:28:47;;;;;;;5.53;3.00;;;;;;;0.40;100.00;100178.70;1609623;89;21459;-72
2022/10/11 03:31:13;;;;;;;5.53;3.17;;;;;;;0.38;100.00;100173.98;1609788;89;21451;-73
2022/10/11 03:33:40;;;;;;;2.92;2.15;;;;;;;0.36;100.00;100168.84;1608273;89;21542;-73
2022/10/11 03:36:07;;;;;;;3.42;2.62;;;;;;;0.36;100.00;100169.27;1648936;86;20962;-73
2022/10/11 03:38:34;;;;;;;3.72;2.62;;;;;;;0.36;100.00;100171.83;1646452;86;21014;-73
2022/10/11 03:41:00;;;;;;;3.30;2.52;;;;;;;0.36;100.00;100173.97;1651548;86;21159;-72
2022/10/11 03:43:27;;;;;;;3.80;2.85;;;;;;;0.39;100.00;100170.59;1640267;87;21010;-73
2022/10/11 03:45:53;;;;;;;6.03;2.72;;;;;;;0.41;100.00;100171.02;1650823;86;21161;-72
2022/10/11 03:48:21;;;;;;;5.42;2.98;;;;;;;0.43;100.00;100171.03;1650599;86;21095;-72
2022/10/11 03:50:48;;;;;;;3.40;2.62;;;;;;;0.44;100.00;100168.91;1651579;86;21104;-72
2022/10/11 03:53:15;;;;;;;5.22;3.52;;;;;;;0.43;100.00;100174.45;1613743;88;21050;-73
2022/10/11 03:55:41;;;;;;;6.00;4.30;;;;;;;0.43;100.00;100172.31;1604999;89;20994;-73
2022/10/11 03:58:08;;;;;;;9.80;5.62;;;;;;;0.42;100.00;100172.73;1605045;89;21180;-73
2022/10/11 04:00:35;;;;;;;8.38;5.25;;;;;;;0.40;100.00;100165.45;1604971;89;21031;-72
2022/10/11 04:03:02;;;;;;;6.30;4.37;;;;;;;0.40;100.00;100172.30;1605427;89;21062;-71
2022/10/11 04:05:30;;;;;;;9.73;4.42;;;;;;;0.38;100.00;100168.87;1605063;89;21579;-71
2022/10/11 04:07:57;;;;;;;5.95;4.17;;;;;;;0.37;100.00;100164.17;1604930;89;21478;-71
2022/10/11 04:10:24;;;;;;;5.97;3.98;;;;;;;0.36;100.00;100159.89;1605147;89;21867;-71
2022/10/11 04:12:51;;;;;;;8.05;5.03;;;;;;;0.36;100.00;100165.02;1600166;89;21602;-71
2022/10/11 04:15:19;;;;;;;5.12;4.15;;;;;;;0.33;100.00;100163.27;1593011;90;21039;-71
2022/10/11 04:17:46;;;;;;;6.10;3.75;;;;;;;0.30;100.00;100161.09;1592933;90;21004;-71
2022/10/11 04:20:13;;;;;;;9.18;5.83;;;;;;;0.30;100.00;100153.42;1593008;90;21009;-71
2022/10/11 04:22:39;;;;;;;12.20;5.60;;;;;;;0.29;100.00;100157.68;1593170;90;21805;-71
2022/10/11 04:25:07;;;;;;;9.95;5.97;;;;;;;0.29;100.00;100155.13;1592908;90;21456;-71
2022/10/11 04:27:34;;;;;;;10.15;5.90;;;;;;;0.29;100.00;100155.54;1592995;90;21063;-71
2022/10/11 04:30:00;;;;;;;7.05;4.95;;;;;;;0.29;100.00;100158.10;1593310;90;21031;-71
2022/10/11 04:32:27;;;;;;;12.68;7.97;;;;;;;0.28;100.00;100162.36;1587033;90;20991;-71
2022/10/11 04:34:53;;;;;;;11.83;8.85;;;;;;;0.25;100.00;100162.32;1592993;90;21224;-71
2022/10/11 04:37:20;;;;;;;10.10;7.90;;;;;;;0.26;100.00;100172.13;1592969;90;21117;-71
2022/10/11 04:39:46;;;;;;;10.05;7.35;;;;;;;0.24;100.00;100172.53;1593001;90;21051;-71
2022/10/11 04:42:14;;;;;;;12.80;7.60;;;;;;;0.23;100.00;100164.00;1593012;90;21015;-71
2022/10/11 04:44:42;;;;;;;8.73;6.25;;;;;;;0.23;100.00;100165.28;1587607;90;21095;-71
2022/10/11 04:47:08;;;;;;;14.78;6.87;;;;;;;0.24;100.00;100164.44;1634107;87;21244;-71
2022/10/11 04:49:35;;;;;;;8.80;6.28;;;;;;;0.26;100.00;100173.41;1632011;87;20971;-71
2022/10/11 04:52:01;;;;;;;12.23;6.70;;;;;;;0.28;100.00;100170.03;1634531;86;21006;-71
2022/10/11 04:54:28;;;;;;;16.12;7.33;;;;;;;0.30;100.00;100166.22;1634146;87;21561;-71
2022/10/11 04:56:55;;;;;;;9.85;7.22;;;;;;;0.33;100.00;100166.25;1632724;87;21446;-71
2022/10/11 04:59:21;;;;;;;11.30;5.83;;;;;;;0.39;100.00;100162.91;1633555;87;21288;-71
2022/10/11 05:01:47;;;;;;;14.65;6.37;;;;;;;0.46;100.00;100168.09;1652799;86;21086;-71
2022/10/11 05:04:14;;;;;;;14.87;7.67;;;;;;;0.54;100.00;100163.92;1660632;85;21014;-71
2022/10/11 05:06:42;;;;;;;9.80;6.90;;;;;;;0.62;100.00;100165.25;1659453;86;20984;-72
2022/10/11 05:09:10;;;;;;;10.20;7.53;;;;;;;0.71;100.00;100172.17;1657807;86;21038;-72
2022/10/11 05:11:38;;;;;;;15.23;9.05;;;;;;;0.79;100.00;100165.44;1661287;85;21146;-72
2022/10/11 05:14:05;;;;;;;13.95;8.88;;;;;;;0.89;100.00;100170.64;1660962;86;21007;-72
2022/10/11 05:16:31;;;;;;;16.32;7.85;;;;;;;0.96;100.00;100174.98;1663345;85;21036;-72
2022/10/11 05:18:57;;;;;;;17.75;8.73;;;;;;;1.00;100.00;100180.95;1689558;85;21585;-73
2022/10/11 05:21:27;;;;;;;32.15;10.00;;;;;;;1.00;100.00;100175.41;1689607;85;20990;-73
2022/10/11 05:23:56;;;;;;;16.07;8.90;;;;;;;1.06;100.00;100176.31;1689666;85;21875;-72
2022/10/11 05:26:26;;;;;;;13.18;7.28;;;;;;;1.14;100.00;100181.95;1689525;85;20960;-73
2022/10/11 05:28:54;;;;;;;20.02;7.62;;;;;;;1.25;100.00;100178.17;1689589;85;20979;-73
2022/10/11 05:31:20;;;;;;;12.80;7.12;;;;;;;1.31;100.00;100181.65;1689568;85;21159;-73
2022/10/11 05:33:50;;;;;;;19.40;6.30;;;;;;;1.40;100.00;100183.40;1689863;85;20955;-73
2022/10/11 05:36:20;;;;;;;11.55;5.95;;;;;;;1.49;100.00;100189.88;1689919;85;21230;-73
2022/10/11 05:38:48;;;;;;;10.13;6.60;;;;;;;1.59;100.00;100177.58;1689583;85;21558;-73
2022/10/11 05:41:16;;;;;;;12.28;6.55;;;;;;;1.70;100.00;100182.33;1689664;85;21455;-73
2022/10/11 05:43:44;;;;;;;9.08;5.60;;;;;;;1.82;100.00;100184.51;1689453;85;20979;-73
2022/10/11 05:46:11;;;;;;;10.40;4.90;;;;;;;1.90;100.00;100179.00;1689566;85;21093;-73
2022/10/11 05:48:39;;;;;;;8.55;5.78;;;;;;;1.99;100.00;100177.36;1689604;85;21172;-73
2022/10/11 05:51:10;;;;;;;14.28;5.67;;;;;;;2.11;100.00;100181.66;1689473;85;21003;-73
2022/10/11 05:53:39;;;;;;;;;;;;;;;2.22;100.00;100182.55;1663235;85;21038;-73
2022/10/11 05:56:27;;;;;;;5.20;4.20;;;;;;;2.32;100.00;100182.17;1689465;85;20164;-73
2022/10/11 05:58:57;;;;;;;9.50;4.75;;;;;;;2.40;100.00;100177.89;1690045;85;21435;-72
2022/10/11 06:01:25;;;;;;;9.03;4.05;;;;;;;2.47;100.00;100185.20;1689771;85;21771;-73
2022/10/11 06:03:57;;;;;;;8.60;5.60;;;;;;;2.55;100.00;100183.52;1689503;83;21611;-73
2022/10/11 06:06:33;;;;;;;10.03;6.60;;;;;;;2.65;100.00;100179.67;1688348;83;21053;-73
2022/10/11 06:09:02;;;;;;;13.70;7.42;;;;;;;2.81;100.00;100191.25;1661078;85;20982;-73
2022/10/11 06:11:42;;;;;;;11.90;7.17;;;;;;;2.94;100.00;100185.29;1689574;85;21074;-73
2022/10/11 06:14:22;;;;;;;12.40;6.67;;;;;;;3.06;100.00;100178.86;1686241;85;21047;-73
2022/10/11 06:16:51;;;;;;;11.03;7.42;;;;;;;3.20;100.00;100183.56;1685328;84;21169;-73
2022/10/11 06:19:21;;;;;;;12.13;6.95;;;;;;;3.32;100.00;100178.86;1685142;84;21109;-73
2022/10/11 06:21:49;;;;;;;15.93;7.47;;;;;;;3.48;100.00;100182.27;1684655;85;21050;-73
2022/10/11 06:24:16;;;;;;;12.07;7.78;;;;;;;3.60;100.00;100177.08;1683306;85;21073;-73
2022/10/11 06:26:43;;;;;;;12.15;6.90;;;;;;;3.72;100.00;100182.22;1683395;85;21784;-73
2022/10/11 06:29:09;;;;;;;11.22;7.10;;;;;;;3.83;100.00;100174.45;1685801;85;21027;-72
2022/10/11 06:31:38;;;;;;;11.05;5.62;;;;;;;3.93;100.00;100181.30;1683558;84;21574;-72
2022/10/11 06:34:04;;;;;;;8.23;5.03;;;;;;;4.05;100.00;100182.11;1674692;85;21112;-72
2022/10/11 06:36:31;;;;;;;15.40;5.12;;;;;;;4.18;100.00;100178.22;1655848;86;21055;-74
2022/10/11 06:39:00;;;;;;;10.63;4.90;;;;;;;4.28;100.00;100175.58;1655578;86;21351;-74
2022/10/11 06:41:28;;;;;;;14.07;5.03;;;;;;;4.41;100.00;100178.50;1655880;86;20972;-70
2022/10/11 06:43:56;;;;;;;10.55;4.67;;;;;;;4.55;100.00;100175.87;1655938;86;21000;-71
2022/10/11 06:46:27;;;;;;;6.33;4.65;;;;;;;4.70;100.00;100182.21;1655819;86;21627;-72
2022/10/11 06:48:55;;;;;;;8.60;4.62;;;;;;;4.86;100.00;100180.38;1669156;85;21050;-72
2022/10/11 06:51:22;;;;;;;9.98;6.17;;;;;;;4.99;100.00;100176.87;1682390;84;21244;-72
2022/10/11 06:53:55;;;;;;;12.05;5.08;;;;;;;5.13;100.00;100175.46;1682139;85;21033;-71
2022/10/11 06:56:22;;;;;;;11.35;5.33;;;;;;;5.28;100.00;100182.20;1659637;85;21037;-72
2022/10/11 06:58:53;;;;;;;8.98;4.97;;;;;;;5.44;100.00;100176.89;1683105;85;21093;-72
2022/10/11 07:01:22;;;;;;;11.03;4.92;;;;;;;5.59;100.00;100177.63;1682909;85;21033;-72
2022/10/11 07:03:48;;;;;;;9.70;5.10;;;;;;;5.72;100.00;100181.78;1683279;84;21085;-71
2022/10/11 07:06:22;;;;;;;7.05;4.10;;;;;;;5.86;100.00;100183.77;1682594;84;20979;-72
2022/10/11 07:08:51;;;;;;;8.18;4.53;;;;;;;6.00;100.00;100182.35;1680433;85;21042;-73
2022/10/11 07:11:21;;;;;;;11.33;5.03;;;;;;;6.13;100.00;100182.64;1682681;84;21104;-72
2022/10/11 07:13:51;;;;;;;6.40;3.52;;;;;;;6.26;100.00;100177.73;1684279;84;21061;-71
2022/10/11 07:16:21;;;;;;;4.60;2.85;;;;;;;6.41;100.00;100185.72;1677457;85;21567;-71
2022/10/11 07:18:56;;;;;;;6.45;2.95;;;;;;;6.53;100.00;100176.53;1677573;85;21070;-71
2022/10/11 07:21:24;;;;;;;5.00;2.70;;;;;;;6.66;100.00;100174.61;1677574;85;21581;-72
2022/10/11 07:23:52;;;;;;;4.42;3.40;;;;;;;6.78;100.00;100171.43;1677822;85;21034;-71
2022/10/11 07:26:18;;;;;;;8.20;3.50;;;;;;;6.90;100.00;100176.41;1677730;85;21516;-71
2022/10/11 07:28:46;;;;;;;4.78;2.50;;;;;;;7.01;100.00;100177.52;1677917;85;21147;-74
2022/10/11 07:31:17;;;;;;;3.90;2.83;;;;;;;7.11;100.00;100172.63;1677977;85;21058;-72
2022/10/11 07:33:45;;;;;;;5.70;3.08;;;;;;;7.22;99.31;100176.31;1677843;85;21078;-72
2022/10/11 07:36:12;;;;;;;5.70;3.02;;;;;;;7.34;98.18;100183.04;1678011;85;21109;-72
2022/10/11 07:38:41;;;;;;;6.35;3.80;;;;;;;7.46;96.66;100181.52;1676956;83;21058;-73
2022/10/11 07:41:08;;;;;;;7.42;3.20;;;;;;;7.56;95.78;100173.58;1712984;83;21151;-73
2022/10/11 07:43:36;;;;;;;9.68;4.03;;;;;;;7.68;94.93;100175.52;1714138;83;21029;-73
2022/10/11 07:46:04;;;;;;;4.60;3.75;;;;;;;7.80;94.75;100175.28;1713836;83;21089;-71
2022/10/11 07:48:33;;;;;;;10.28;5.15;;;;;;;7.92;94.43;100172.47;1714255;83;22019;-72
2022/10/11 07:51:13;;;;;;;9.05;5.00;;;;;;;8.05;93.91;100166.16;1713922;83;21033;-74
2022/10/11 07:53:52;;;;;;;10.38;3.65;;;;;;;8.17;93.50;100171.55;1714086;83;21197;-73
2022/10/11 07:56:23;;;;;;;7.17;3.90;;;;;;;8.29;92.18;100161.77;1714339;83;21089;-73
2022/10/11 07:58:57;;;;;;;6.97;4.37;;;;;;;8.41;90.93;100161.12;1713765;83;21050;-73
2022/10/11 08:01:25;;;;;;;7.22;4.00;;;;;;;8.52;89.96;100160.45;1713914;83;21029;-73
2022/10/11 08:03:52;;;;;;;7.75;3.55;;;;;;;8.63;88.83;100155.87;1714344;83;21538;-73
2022/10/11 08:06:21;;;;;;;4.58;3.08;;;;;;;8.72;87.12;100158.27;1713845;83;21220;-72
2022/10/11 08:08:49;;;;;;;6.55;2.60;;;;;;;8.83;86.66;100158.01;1713792;83;21526;-73
2022/10/11 08:11:23;;;;;;;2.77;2.12;;;;;;;8.94;84.71;100159.48;1714203;83;21065;-71
2022/10/11 08:13:51;;;;;;;5.62;2.50;;;;;;;9.04;83.71;100156.20;1707974;83;20997;-70
2022/10/11 08:16:18;;;;;;;7.95;2.60;;;;;;;9.14;83.06;100147.77;1690428;84;21596;-71
2022/10/11 08:18:46;;;;;;;6.72;2.80;;;;;;;9.27;82.55;100147.85;1674131;84;21095;-73
2022/10/11 08:21:16;;;;;;;4.58;2.00;;;;;;;9.41;80.97;100139.70;1655095;86;21127;-72
2022/10/11 08:23:44;;;;;;;3.75;1.60;;;;;;;9.53;80.21;100140.70;1656907;86;21349;-71
2022/10/11 08:26:11;;;;;;;3.22;1.10;;;;;;;9.62;79.21;100139.98;1659849;86;21064;-72
2022/10/11 08:28:38;;;;;;;1.40;0.80;;;;;;;9.74;77.85;100139.27;1658124;86;21099;-72
2022/10/11 08:31:05;;;;;;;2.37;1.20;;;;;;;9.82;77.04;100143.78;1660277;85;21302;-72
2022/10/11 08:33:32;;;;;;;1.87;0.90;;;;;;;9.92;76.08;100139.61;1658457;86;21051;-71
2022/10/11 08:36:04;;;;;;;2.98;1.00;;;;;;;10.02;76.00;100136.28;1660527;85;21043;-71
2022/10/11 08:38:33;;;;;;;1.92;1.25;;;;;;;10.11;75.06;100131.28;1658429;85;21063;-71
2022/10/11 08:41:00;;;;;;;2.80;1.20;;;;;;;10.19;73.83;100136.67;1659594;86;21011;-71
2022/10/11 08:43:53;;;;;;;1.45;0.90;;;;;;;10.27;73.57;100139.06;1658634;84;21568;-71
2022/10/11 08:46:24;;;;;;;5.33;1.02;;;;;;;10.36;72.88;100132.30;1659147;85;21056;-71
2022/10/11 08:48:52;;;;;;;1.98;1.10;;;;;;;10.48;72.08;100126.72;1659599;86;21008;-71
2022/10/11 08:51:39;;;;;;;1.05;0.57;;;;;;;10.58;71.20;100127.30;1659646;85;21003;-71
2022/10/11 08:54:19;;;;;;;1.00;0.60;;;;;;;10.65;70.23;100121.84;1662548;86;21523;-71
2022/10/11 08:56:50;;;;;;;0.70;0.70;;;;;;;10.73;67.43;100125.97;1660441;85;21284;-70
2022/10/11 08:59:27;;;;;;;3.02;0.75;;;;;;;10.79;66.56;100127.08;1662533;86;21496;-70
2022/10/11 09:02:32;;;;;;;1.72;0.60;;;;;;;10.86;65.90;100131.16;1662605;86;21011;-70
2022/10/11 09:04:59;;;;;;;2.50;1.40;;;;;;;10.93;64.08;100124.42;1659523;86;21020;-71
2022/10/11 09:07:52;;;;;;;2.17;1.12;;;;;;;11.02;64.29;100114.14;1659084;86;20985;-70
2022/10/11 09:10:36;;;;;;;2.58;0.90;;;;;;;11.09;65.03;100118.70;1659668;86;21186;-70
2022/10/11 09:13:30;;;;;;;0.98;0.50;;;;;;;11.18;62.54;100122.33;1662409;86;20961;-71
2022/10/11 09:16:00;;;;;;;2.58;0.72;;;;;;;11.26;62.04;100122.45;1691332;84;20978;-70
2022/10/11 09:18:55;;;;;;;3.33;0.70;;;;;;;11.35;61.78;100113.48;1676810;84;20975;-70
2022/10/11 09:21:40;;;;;;;1.65;0.68;;;;;;;11.40;60.33;100116.76;1663456;84;45700;-70
2022/10/11 09:24:46;;;;;;;2.95;0.98;;;;;;;11.47;60.11;100114.35;1688475;84;21189;-71
2022/10/11 09:27:28;;;;;;;1.70;0.80;;;;;;;11.51;60.51;100114.65;1683102;85;21022;-71
2022/10/11 09:30:07;;;;;;;2.58;0.93;;;;;;;11.59;59.76;100117.00;1679586;85;21458;-70
2022/10/11 09:32:40;;;;;;;1.25;0.70;;;;;;;11.66;58.88;100106.28;1678573;84;21199;-71
2022/10/11 09:35:13;;;;;;;2.20;0.75;;;;;;;11.71;57.95;100104.37;1654089;85;20999;-70
2022/10/11 09:38:27;;;;;;;1.98;1.05;;;;;;;11.78;57.01;100102.89;1678840;84;21574;-71
2022/10/11 09:41:12;;;;;;;0.80;0.70;;;;;;;11.82;57.09;100093.58;1682032;85;20999;-70
2022/10/11 09:43:47;;;;;;;1.07;0.53;;;;;;;11.89;56.06;100090.30;1680222;84;21023;-71
2022/10/11 09:46:35;;;;;;;1.75;0.85;;;;;;;11.95;56.05;100084.87;1677836;84;20982;-70
2022/10/11 09:49:05;;;;;;;1.00;0.80;;;;;;;12.03;56.39;100084.11;1686882;84;21023;-75
2022/10/11 09:51:31;;;;;;;3.00;0.98;;;;;;;12.11;56.80;100079.92;1684594;85;21153;-74
2022/10/11 09:54:02;;;;;;;3.05;1.00;;;;;;;12.17;57.38;100082.30;1673842;85;21088;-74
2022/10/11 09:56:32;;;;;;;1.80;0.70;;;;;;;12.24;57.09;100079.84;1667750;85;21030;-73
2022/10/11 09:59:22;;;;;;;3.08;0.90;;;;;;;12.30;56.04;100078.30;1673940;85;21050;-73
2022/10/11 10:02:15;;;;;;;1.80;0.70;;;;;;;12.33;56.20;100072.97;1668072;85;21013;-73
2022/10/11 10:05:03;;;;;;;1.65;0.70;;;;;;;12.39;55.73;100069.65;1678567;85;21985;-73
2022/10/11 10:07:32;;;;;;;2.47;0.72;;;;;;;12.47;54.19;100068.51;1659392;85;21564;-75
2022/10/11 10:10:00;;;;;;;3.85;0.70;;;;;;;12.51;52.53;100070.94;1680130;84;21616;-73
2022/10/11 10:12:29;;;;;;;3.42;0.85;;;;;;;12.56;51.79;100072.07;1660077;84;21085;-73
2022/10/11 10:15:09;;;;;;;2.50;0.55;;;;;;;12.60;49.56;100071.02;1684149;84;21440;-73
2022/10/11 10:17:38;;;;;;;5.33;1.20;;;;;;;12.61;49.56;100072.26;1651739;84;21631;-74
2022/10/11 10:20:09;;;;;;;9.18;2.37;;;;;;;12.66;49.82;100062.95;1659423;85;21269;-75
2022/10/11 10:22:36;;;;;;;3.65;0.93;;;;;;;12.70;49.81;100057.55;1677433;85;21074;-74
2022/10/11 10:25:06;;;;;;;5.17;0.90;;;;;;;12.74;48.23;100060.44;1646469;85;21481;-73
2022/10/11 10:27:33;;;;;;;1.25;0.57;;;;;;;12.78;47.61;100062.47;1675915;85;21053;-74
2022/10/11 10:30:14;;;;;;;0.42;0.40;;;;;;;12.82;47.73;100062.70;1679639;85;21236;-74
2022/10/11 10:32:53;;;;;;;0.98;0.50;;;;;;;12.85;47.24;100050.84;1673368;85;21042;-73
2022/10/11 10:36:01;;;;;;;3.10;0.80;;;;;;;12.89;47.19;100041.97;1676665;85;21182;-74
2022/10/11 10:38:36;;;;;;;2.80;0.85;;;;;;;12.96;47.31;100045.19;1641704;85;21065;-73
2022/10/11 10:41:07;;;;;;;1.17;0.75;;;;;;;13.05;47.14;100044.33;1645609;86;21068;-74
2022/10/11 10:43:36;;;;;;;1.22;0.80;;;;;;;13.12;47.11;100044.92;1653887;86;21198;-73
2022/10/11 10:46:17;;;;;;;2.08;1.25;;;;;;;13.15;47.41;100032.20;1656442;86;21092;-73
2022/10/11 10:49:10;;;;;;;2.37;0.95;;;;;;;13.17;47.67;100043.00;1633767;87;21092;-74
2022/10/11 10:52:05;;;;;;;1.15;0.57;;;;;;;13.21;48.00;100030.64;1651523;86;21054;-74
2022/10/11 10:55:06;;;;;;;2.60;0.57;;;;;;;13.23;48.02;100029.66;1654993;86;21257;-73
2022/10/11 10:57:45;;;;;;;2.25;0.82;;;;;;;13.26;48.27;100023.00;1622612;88;21305;-73
2022/10/11 11:00:18;;;;;;;3.05;1.10;;;;;;;13.28;48.59;100025.09;1650304;85;21026;-73
2022/10/11 11:03:01;;;;;;;;;;;;;;;13.33;48.87;100023.13;1657839;84;21086;-74
2022/10/11 11:05:52;;;;;;;2.83;0.88;;;;;;;13.36;47.81;100013.01;1673274;83;20532;-74
2022/10/11 11:08:57;;;;;;;1.25;0.50;;;;;;;13.37;47.17;100007.72;1684426;83;21043;-73
2022/10/11 11:11:39;;;;;;;2.47;0.68;;;;;;;13.39;46.27;100008.47;1679317;83;21663;-74
2022/10/11 11:14:36;;;;;;;4.00;0.80;;;;;;;13.46;45.04;100007.75;1673177;85;21017;-73
2022/10/11 11:17:47;;;;;;;2.12;0.72;;;;;;;13.46;45.04;100007.75;1670457;84;20995;-73
2022/10/11 11:20:29;;;;;;;4.78;0.70;;;;;;;13.50;44.80;100002.78;1658294;84;21013;-74
2022/10/11 11:23:27;;;;;;;1.80;0.70;;;;;;;13.53;44.81;100000.50;1687124;83;21500;-73
2022/10/11 11:26:20;;;;;;;0.88;0.33;;;;;;;13.53;45.00;99991.34;1673676;84;21215;-73
2022/10/11 11:29:01;;;;;;;2.50;0.93;;;;;;;13.57;44.48;99996.38;1690299;84;21494;-73
2022/10/11 11:32:00;;;;;;;4.95;0.50;;;;;;;13.59;44.92;100000.23;1678650;84;21058;-73
2022/10/11 11:34:37;;;;;;;1.92;0.60;;;;;;;13.59;44.80;99991.08;1634711;85;21062;-72
2022/10/11 11:37:30;;;;;;;0.72;0.50;;;;;;;13.59;43.51;99994.51;1667277;84;21431;-73
2022/10/11 11:40:04;;;;;;;;;;;;;;;13.59;43.14;99993.70;1682275;84;21179;-73
2022/10/11 11:42:51;;;;;;;0.75;0.55;;;;;;;13.61;42.93;99987.91;1666066;85;20148;-73
2022/10/11 11:45:47;;;;;;;0.40;0.20;;;;;;;13.61;43.01;99985.30;1593227;89;21113;-72
2022/10/11 11:48:23;;;;;;;2.35;1.02;;;;;;;13.59;42.59;99981.93;1599726;89;21053;-73
2022/10/11 11:51:06;;;;;;;4.83;0.78;;;;;;;13.60;42.89;99979.22;1597858;89;21057;-73
2022/10/11 11:53:46;;;;;;;5.12;1.70;;;;;;;13.62;43.31;99977.84;1597750;89;21002;-73
2022/10/11 11:57:06;;;;;;;2.47;0.90;;;;;;;13.63;44.48;99973.86;1582293;89;21090;-73